DW2802 Ogijares ES current weather conditions

sailwx.info

Wind from 155

Air temperature 23.3° C
Dewpoint 7.8° C

Last reported at 2015-Jul-08 05:50 UTC.
Time now 2015-Jul-08 06:34 UTC

Location: N 37°07' W 003°36'.
View on Google Maps.

See reports from other nearby stations

  
Tides and Currents Weather Stations Pressure Air Temp Water Temp Dewpoint Dewpoint Depression Visibility Wind Speed Wind Dir Waves Ship Positions
date/time (UTC)wind fromknots sea level pressurealtimeterstation pressurevisibilityair tempwater tempwave heightnotes
2015-Jul-08 05:50 155 23.3
2015-Jul-08 05:35 155 23.3
2015-Jul-08 05:20 155 23.3
2015-Jul-08 05:05 155 23.3
2015-Jul-08 04:50 142 23.3
2015-Jul-08 04:35 142 23.9
2015-Jul-08 04:20 142 24.4
2015-Jul-08 04:05 142 24.4
2015-Jul-08 03:50 142 25.0
2015-Jul-08 03:35 142 25.0
2015-Jul-08 03:20 142 24.4
2015-Jul-08 03:05 142 25.0
2015-Jul-08 02:50 142 25.6
2015-Jul-08 02:34 142 25.6
2015-Jul-08 02:19 142 25.6
2015-Jul-08 02:04 139 25.0
2015-Jul-08 01:49 139 25.0
2015-Jul-08 01:34 139 25.6
2015-Jul-08 01:19 139 25.6
2015-Jul-08 01:04 139 26.1
2015-Jul-08 00:49 139 26.1
2015-Jul-08 00:34 139 26.7
2015-Jul-08 00:19 139 26.7
2015-Jul-08 00:04 139 26.7
2015-Jul-07 23:49 139 26.7
2015-Jul-07 23:34 139 27.2
2015-Jul-07 23:19 139 27.2
2015-Jul-07 23:04 139 27.2
2015-Jul-07 22:49 139 27.8
2015-Jul-07 22:34 139 28.3
2015-Jul-07 22:19 139 28.3
2015-Jul-07 22:04 139 29.4
2015-Jul-07 21:49 139 30.0
2015-Jul-07 21:35 139 30.6
2015-Jul-07 21:19 139 30.6
2015-Jul-07 21:04 138 31.1
2015-Jul-07 20:49 138 31.7
2015-Jul-07 20:34 063 31.7
2015-Jul-07 20:19 063 32.2
2015-Jul-07 20:04 067 1 gusting 6 32.2
2015-Jul-07 19:49 138 4 gusting 6 33.3
2015-Jul-07 19:34 154 3 gusting 6 33.9
2015-Jul-07 19:19 173 4 gusting 9 33.9
2015-Jul-07 19:04 184 0 gusting 6 34.4
2015-Jul-07 18:49 181 3 gusting 8 35.0
2015-Jul-07 18:34 169 6 gusting 12 35.0
2015-Jul-07 18:19 157 4 gusting 8 35.6
2015-Jul-07 18:04 171 6 gusting 12 35.6
2015-Jul-07 17:49 180 7 gusting 11 35.6
2015-Jul-07 17:34 140 4 gusting 12 36.1
2015-Jul-07 17:19 161 7 gusting 13 35.6
2015-Jul-07 17:04 164 5 gusting 10 35.6
2015-Jul-07 16:49 176 6 gusting 11 35.6
2015-Jul-07 16:34 198 6 gusting 14 36.1
2015-Jul-07 16:19 184 6 gusting 17 36.7
2015-Jul-07 16:04 173 6 gusting 10 36.7
2015-Jul-07 15:49 153 6 gusting 11 36.1
2015-Jul-07 15:34 185 9 gusting 13 36.7
2015-Jul-07 15:19 143 5 gusting 13 36.7
2015-Jul-07 15:03 211 4 gusting 12 37.2
2015-Jul-07 14:48 178 8 gusting 13 37.8
2015-Jul-07 14:33 188 5 gusting 13 37.8
2015-Jul-07 14:18 221 4 gusting 11 37.2
2015-Jul-07 14:03 199 6 gusting 13 37.2
2015-Jul-07 13:48 219 1 gusting 10 37.8
2015-Jul-07 13:33 206 6 gusting 15 37.2
2015-Jul-07 13:18 178 6 gusting 13 37.2
2015-Jul-07 13:03 182 6 gusting 13 37.2
2015-Jul-07 12:48 205 7 gusting 14 37.2
2015-Jul-07 12:33 190 6 gusting 12 37.2
2015-Jul-07 12:18 168 2 gusting 12 36.7
2015-Jul-07 12:03 186 5 gusting 10 36.7
2015-Jul-07 11:48 184 2 gusting 11 36.7
2015-Jul-07 11:33 350 2 gusting 5 36.1
2015-Jul-07 11:18 294 35.6
2015-Jul-07 11:03 021 5 gusting 7 35.6
2015-Jul-07 10:48 028 0 gusting 6 35.0
2015-Jul-07 10:33 034 0 gusting 5 33.9
2015-Jul-07 10:18 013 33.3
2015-Jul-07 10:03 005 33.3
2015-Jul-07 09:48 348 32.8
2015-Jul-07 09:33 026 32.8
2015-Jul-07 09:17 005 32.2
2015-Jul-07 09:02 005 31.1
2015-Jul-07 08:47 028 31.1
2015-Jul-07 08:32 028 30.0
2015-Jul-07 08:17 327 29.4
2015-Jul-07 07:47 286 28.3
2015-Jul-07 07:32 286 26.7
2015-Jul-07 07:17 286 26.1
2015-Jul-07 07:02 146 25.0
2015-Jul-07 06:47 142 24.4
2015-Jul-07 06:31 142 24.4
2015-Jul-07 06:16 142 23.3
2015-Jul-07 06:01 196 22.8
2015-Jul-07 05:46 180 21.7
2015-Jul-07 05:31 180 22.2
2015-Jul-07 05:16 180 22.8
2015-Jul-07 05:01 180 22.8
2015-Jul-07 04:46 180 22.8
2015-Jul-07 04:31 180 22.8
2015-Jul-07 04:16 180 22.8
2015-Jul-07 04:01 180 23.9
2015-Jul-07 03:46 180 23.9
2015-Jul-07 03:31 180 23.9
2015-Jul-07 03:16 180 24.4
2015-Jul-07 03:01 180 24.4
2015-Jul-07 02:46 197 24.4
2015-Jul-07 02:31 147 24.4
2015-Jul-07 02:16 115 24.4
2015-Jul-07 02:01 105 25.0
2015-Jul-07 01:46 105 25.0
2015-Jul-07 01:31 105 24.4
2015-Jul-07 01:16 105 25.0
2015-Jul-07 01:01 105 25.0
2015-Jul-07 00:46 127 25.6
2015-Jul-07 00:31 127 25.6
2015-Jul-07 00:16 127 25.6
2015-Jul-07 00:01 127 25.6
2015-Jul-06 23:46 126 26.1
2015-Jul-06 23:31 126 26.1
2015-Jul-06 23:16 126 26.7
2015-Jul-06 23:00 128 26.7
2015-Jul-06 22:45 128 26.7
2015-Jul-06 22:30 128 27.2
2015-Jul-06 22:15 128 27.2
2015-Jul-06 22:01 128 26.7
2015-Jul-06 21:45 082 27.2
2015-Jul-06 21:30 063 28.3
2015-Jul-06 21:15 061 28.3
2015-Jul-06 21:00 061 29.4
2015-Jul-06 20:45 061 30.0
2015-Jul-06 20:30 061 30.6
2015-Jul-06 20:15 061 31.1
2015-Jul-06 20:00 058 3 gusting 7 31.7
2015-Jul-06 19:45 138 2 gusting 6 32.2
2015-Jul-06 19:30 138 1 gusting 8 32.8
2015-Jul-06 19:15 145 3 gusting 8 33.3
2015-Jul-06 19:00 146 0 gusting 8 33.9
2015-Jul-06 18:45 189 3 gusting 6 34.4
2015-Jul-06 18:30 229 0 gusting 9 35.0
2015-Jul-06 18:15 184 4 gusting 8 35.0
2015-Jul-06 18:00 161 2 gusting 12 35.0
2015-Jul-06 17:45 170 8 gusting 13 35.6
2015-Jul-06 17:30 198 6 gusting 13 35.6
2015-Jul-06 17:15 187 6 gusting 9 35.6
2015-Jul-06 17:00 132 0 gusting 6 36.1
2015-Jul-06 16:45 140 1 gusting 14 35.6
2015-Jul-06 16:30 147 13 gusting 20 35.6
2015-Jul-06 16:15 207 14 gusting 21 36.1
2015-Jul-06 16:00 189 11 gusting 22 36.1
2015-Jul-06 15:45 198 10 gusting 20 35.6
2015-Jul-06 15:30 155 10 gusting 24 35.6
2015-Jul-06 15:15 143 13 gusting 22 36.1
2015-Jul-06 15:00 178 9 gusting 26 35.0
2015-Jul-06 14:45 186 12 gusting 25 35.0
2015-Jul-06 14:30 178 12 gusting 19 35.6
2015-Jul-06 14:15 207 11 gusting 21 35.6
2015-Jul-06 14:00 181 13 gusting 20 35.6
2015-Jul-06 13:45 184 13 gusting 23 35.6
2015-Jul-06 13:30 210 12 gusting 23 35.0
2015-Jul-06 13:15 188 13 gusting 21 35.0
2015-Jul-06 13:00 182 12 gusting 23 36.1
2015-Jul-06 12:45 176 13 gusting 20 36.1
2015-Jul-06 12:30 171 9 gusting 21 36.7
2015-Jul-06 12:15 204 7 gusting 13 36.7
2015-Jul-06 12:00 179 4 gusting 7 36.7
2015-Jul-06 11:45 342 36.7
2015-Jul-06 11:30 013 36.1
2015-Jul-06 11:15 350 35.0
2015-Jul-06 11:00 355 0 gusting 5 35.6
2015-Jul-06 10:45 345 34.4
2015-Jul-06 10:30 280 33.3
2015-Jul-06 10:15 299 33.3
2015-Jul-06 09:59 069 32.8
2015-Jul-06 09:44 011 32.8
2015-Jul-06 09:29 013 32.2
2015-Jul-06 09:14 336 0 gusting 3 31.7
2015-Jul-06 08:59 303 31.1
2015-Jul-06 08:44 297 29.4
2015-Jul-06 08:29 274 29.4
2015-Jul-06 08:14 274 28.3
2015-Jul-06 07:59 246 27.8
2015-Jul-06 07:44 227 27.2
2015-Jul-06 07:29 254 27.2
2015-Jul-06 07:14 172 26.7
2015-Jul-06 06:59 058 27.2
2015-Jul-06 06:44 058 25.6
2015-Jul-06 06:28 150 25.0
2015-Jul-06 06:13 150 24.4